createdAt,value
2022-11-24T00:00:11.982Z,99658.81
2022-11-24T00:02:57.232Z,99660.69
2022-11-24T00:05:42.494Z,99648.38
2022-11-24T00:08:27.458Z,99681.47
2022-11-24T00:11:18.133Z,99674.59
2022-11-24T00:14:04.660Z,99685.38
2022-11-24T00:16:49.931Z,99696.06
2022-11-24T00:19:34.976Z,99697.97
2022-11-24T00:22:19.850Z,99690.22
2022-11-24T00:25:05.299Z,99664.81
2022-11-24T00:27:50.262Z,99702.44
2022-11-24T00:30:35.694Z,99707.19
2022-11-24T00:33:20.657Z,99709.06
2022-11-24T00:36:05.813Z,99710.16
2022-11-24T00:38:55.563Z,99704.72
2022-11-24T00:41:40.982Z,99716.91
2022-11-24T00:44:25.976Z,99723.41
2022-11-24T00:47:11.010Z,99735.31
2022-11-24T00:49:56.498Z,99736.59
2022-11-24T00:52:41.920Z,99745.72
2022-11-24T00:55:26.757Z,99756.25
2022-11-24T00:58:11.890Z,99760.97
2022-11-24T01:01:17.961Z,99753.84
2022-11-24T01:04:03.429Z,99760.34
2022-11-24T01:06:48.788Z,99755.00
2022-11-24T01:09:33.803Z,99758.16
2022-11-24T01:12:19.043Z,99764.66
2022-11-24T01:15:04.558Z,99769.50
2022-11-24T01:17:49.537Z,99770.31
2022-11-24T01:20:36.632Z,99788.66
2022-11-24T01:23:21.729Z,99802.06
2022-11-24T01:26:08.602Z,99809.97
2022-11-24T01:28:58.012Z,99817.91
2022-11-24T01:31:42.960Z,99822.50
2022-11-24T01:34:28.295Z,99828.88
2022-11-24T01:37:13.496Z,99845.44
2022-11-24T01:39:58.685Z,99844.00
2022-11-24T01:42:51.505Z,99832.66
2022-11-24T01:45:41.397Z,99850.50
2022-11-24T01:48:40.794Z,99853.94
2022-11-24T01:51:29.733Z,99877.59
2022-11-24T01:54:18.295Z,99873.66
2022-11-24T01:57:11.471Z,99871.78
2022-11-24T02:00:01.913Z,99890.41
2022-11-24T02:02:47.292Z,99892.19
2022-11-24T02:05:51.292Z,99904.69
2022-11-24T02:08:48.984Z,99924.94
2022-11-24T02:11:38.395Z,99920.13
2022-11-24T02:14:24.928Z,99915.41
2022-11-24T02:17:10.592Z,99914.38
2022-11-24T02:20:01.893Z,99916.66
2022-11-24T02:23:09.654Z,99929.69
2022-11-24T02:26:26.592Z,99933.97
2022-11-24T02:29:13.324Z,99943.75
2022-11-24T02:32:04.700Z,99953.75
2022-11-24T02:34:49.940Z,99936.97
2022-11-24T02:37:35.083Z,99964.78
2022-11-24T02:40:27.056Z,99964.16
2022-11-24T02:43:20.609Z,99964.25
2022-11-24T02:46:06.789Z,99959.13
2022-11-24T02:48:51.949Z,99988.03
2022-11-24T02:51:37.124Z,99994.88
2022-11-24T02:54:22.617Z,100001.03
2022-11-24T02:57:07.754Z,100006.53
2022-11-24T02:59:52.840Z,100006.81
2022-11-24T03:02:37.929Z,100014.22
2022-11-24T03:05:23.656Z,100022.22
2022-11-24T03:08:08.646Z,100017.66
2022-11-24T03:10:54.489Z,100029.47
2022-11-24T03:13:39.707Z,100002.22
2022-11-24T03:16:24.858Z,100045.00
2022-11-24T03:19:09.978Z,100051.22
2022-11-24T03:21:55.308Z,100053.19
2022-11-24T03:24:40.529Z,100049.97
2022-11-24T03:27:25.815Z,100045.03
2022-11-24T03:30:11.913Z,100066.97
2022-11-24T03:32:57.176Z,100069.94
2022-11-24T03:35:42.452Z,100067.00
2022-11-24T03:38:27.680Z,100066.25
2022-11-24T03:41:13.451Z,100071.06
2022-11-24T03:43:58.475Z,100069.88
2022-11-24T03:46:43.528Z,100060.13
2022-11-24T03:49:28.838Z,100074.50
2022-11-24T03:52:13.997Z,100073.03
2022-11-24T03:54:58.900Z,100076.84
2022-11-24T03:57:43.753Z,100090.78
2022-11-24T04:00:29.118Z,100102.13
2022-11-24T04:03:14.492Z,100104.06
2022-11-24T04:05:59.619Z,100116.38
2022-11-24T04:08:44.641Z,100100.66
2022-11-24T04:11:48.099Z,100131.34
2022-11-24T04:14:33.755Z,100110.97
2022-11-24T04:17:19.265Z,100120.63
2022-11-24T04:20:05.306Z,100133.09
2022-11-24T04:22:51.694Z,100138.38
2022-11-24T04:25:37.156Z,100140.53
2022-11-24T04:28:22.553Z,100146.91
2022-11-24T04:31:07.759Z,100147.19
2022-11-24T04:33:52.798Z,100136.28
2022-11-24T04:36:37.867Z,100141.41
2022-11-24T04:39:26.288Z,100130.31
2022-11-24T04:42:13.470Z,100136.34
2022-11-24T04:44:58.736Z,100151.59
2022-11-24T04:47:43.802Z,100148.59
2022-11-24T04:50:28.945Z,100148.94
2022-11-24T04:53:14.428Z,100154.06
2022-11-24T04:55:59.892Z,100149.09
2022-11-24T04:58:48.358Z,100156.25
2022-11-24T05:01:33.886Z,100164.69
2022-11-24T05:04:20.329Z,100168.41
2022-11-24T05:07:05.690Z,100169.25
2022-11-24T05:10:09.259Z,100169.59
2022-11-24T05:12:56.911Z,100178.91
2022-11-24T05:15:42.118Z,100179.50
2022-11-24T05:18:27.303Z,100189.69
2022-11-24T05:21:12.405Z,100189.97
2022-11-24T05:23:57.901Z,100192.81
2022-11-24T05:26:43.176Z,100195.56
2022-11-24T05:29:28.063Z,100184.50
2022-11-24T05:32:13.317Z,100167.16
2022-11-24T05:35:00.569Z,100200.06
2022-11-24T05:37:45.792Z,100194.38
2022-11-24T05:40:31.679Z,100199.47
2022-11-24T05:43:17.072Z,100211.09
2022-11-24T05:46:02.315Z,100195.16
2022-11-24T05:48:47.660Z,100231.00
2022-11-24T05:51:33.343Z,100233.50
2022-11-24T05:54:18.713Z,100238.47
2022-11-24T05:57:03.751Z,100236.72
2022-11-24T05:59:48.967Z,100241.91
2022-11-24T06:02:34.225Z,100242.69
2022-11-24T06:05:19.325Z,100255.38
2022-11-24T06:08:06.874Z,100256.44
2022-11-24T06:10:51.969Z,100259.16
2022-11-24T06:13:36.916Z,100258.34
2022-11-24T06:16:23.026Z,100269.41
2022-11-24T06:19:10.555Z,100245.69
2022-11-24T06:21:55.476Z,100260.56
2022-11-24T06:24:40.763Z,100270.25
2022-11-24T06:27:26.411Z,100269.56
2022-11-24T06:30:12.525Z,100273.28
2022-11-24T06:32:57.758Z,100275.22
2022-11-24T06:35:42.932Z,100279.47
2022-11-24T06:38:27.923Z,100280.97
2022-11-24T06:41:15.029Z,100263.97
2022-11-24T06:44:02.793Z,100270.03
2022-11-24T06:46:48.371Z,100280.47
2022-11-24T06:49:33.391Z,100257.50
2022-11-24T06:52:18.629Z,100268.19
2022-11-24T06:55:04.150Z,100275.19
2022-11-24T06:57:49.463Z,100262.06
2022-11-24T07:00:34.633Z,100274.13
2022-11-24T07:03:20.112Z,100279.31
2022-11-24T07:06:05.455Z,100275.72
2022-11-24T07:08:51.246Z,100281.28
2022-11-24T07:11:36.874Z,100295.13
2022-11-24T07:14:21.882Z,100289.34
2022-11-24T07:17:07.460Z,100282.94
2022-11-24T07:19:52.663Z,100296.22
2022-11-24T07:22:37.973Z,100306.44
2022-11-24T07:25:24.741Z,100275.91
2022-11-24T07:28:09.847Z,100311.94
2022-11-24T07:30:55.144Z,100323.06
2022-11-24T07:33:40.779Z,100293.09
2022-11-24T07:36:25.738Z,100313.31
2022-11-24T07:39:11.071Z,100320.94
2022-11-24T07:41:56.292Z,100318.97
2022-11-24T07:44:41.626Z,100308.28
2022-11-24T07:47:27.055Z,100335.16
2022-11-24T07:50:13.108Z,100334.22
2022-11-24T07:53:03.485Z,100334.22
2022-11-24T07:55:56.406Z,100330.25
2022-11-24T07:58:41.545Z,100336.81
2022-11-24T08:01:26.884Z,100335.25
2022-11-24T08:04:12.196Z,100337.22
2022-11-24T08:06:57.261Z,100335.56
2022-11-24T08:09:42.310Z,100343.66
2022-11-24T08:12:27.559Z,100360.38
2022-11-24T08:15:12.592Z,100338.59
2022-11-24T08:18:01.215Z,100345.22
2022-11-24T08:20:46.192Z,100330.81
2022-11-24T08:23:32.004Z,100336.41
2022-11-24T08:26:20.222Z,100334.72
2022-11-24T08:29:05.014Z,100341.66
2022-11-24T08:31:50.487Z,100348.75
2022-11-24T08:34:43.232Z,100352.97
2022-11-24T08:37:29.372Z,100353.78
2022-11-24T08:40:14.761Z,100349.06
2022-11-24T08:43:00.774Z,100339.66
2022-11-24T08:45:45.997Z,100337.84
2022-11-24T08:48:31.647Z,100319.84
2022-11-24T08:51:20.486Z,100331.56
2022-11-24T08:54:05.389Z,100330.66
2022-11-24T08:56:50.705Z,100322.78
2022-11-24T08:59:35.926Z,100334.38
2022-11-24T09:02:20.864Z,100336.59
2022-11-24T09:05:22.493Z,100328.78
2022-11-24T09:08:11.043Z,100309.97
2022-11-24T09:11:05.253Z,100330.41
2022-11-24T09:13:50.326Z,100336.97
2022-11-24T09:16:36.251Z,100318.31
2022-11-24T09:19:21.177Z,100330.81
2022-11-24T09:22:06.140Z,100330.75
2022-11-24T09:24:51.117Z,100326.00
2022-11-24T09:27:36.687Z,100334.00
2022-11-24T09:30:23.126Z,100292.31
2022-11-24T09:33:08.095Z,100320.44
2022-11-24T09:35:53.034Z,100323.63
2022-11-24T09:38:37.983Z,100333.00
2022-11-24T09:42:02.293Z,100334.63
2022-11-24T09:44:59.106Z,100334.97
2022-11-24T09:48:17.246Z,100311.06
2022-11-24T09:51:04.212Z,100325.53
2022-11-24T09:53:53.532Z,100334.31
2022-11-24T09:56:41.612Z,100331.38
2022-11-24T09:59:27.507Z,100321.97
2022-11-24T10:02:13.900Z,100317.81
2022-11-24T10:04:59.019Z,100310.69
2022-11-24T10:07:57.690Z,100296.56
2022-11-24T10:10:57.563Z,100318.81
2022-11-24T10:14:04.201Z,100316.38
2022-11-24T10:16:57.369Z,100317.72
2022-11-24T10:19:56.389Z,100313.72
2022-11-24T10:23:02.340Z,100308.53
2022-11-24T10:25:47.178Z,100312.41
2022-11-24T10:28:55.021Z,100310.28
2022-11-24T10:31:45.684Z,100310.88
2022-11-24T10:35:06.088Z,100310.56
2022-11-24T10:38:10.271Z,100313.97
2022-11-24T10:41:07.574Z,100295.66
2022-11-24T10:43:52.805Z,100306.66
2022-11-24T10:46:39.506Z,100296.03
2022-11-24T10:49:30.003Z,100295.13
2022-11-24T10:52:16.635Z,100283.41
2022-11-24T10:55:04.157Z,100269.78
2022-11-24T10:57:49.232Z,100269.56
2022-11-24T11:00:35.844Z,100282.97
2022-11-24T11:03:24.742Z,100265.81
2022-11-24T11:06:24.425Z,100267.50
2022-11-24T11:09:10.095Z,100262.38
2022-11-24T11:11:55.594Z,100259.41
2022-11-24T11:14:40.851Z,100257.72
2022-11-24T11:17:37.047Z,100245.94
2022-11-24T11:20:35.540Z,100245.81
2022-11-24T11:23:22.130Z,100228.06
2022-11-24T11:26:22.065Z,100231.88
2022-11-24T11:35:33.527Z,100220.53
2022-11-24T11:38:19.888Z,100215.91
2022-11-24T11:41:10.786Z,100199.09
2022-11-24T11:44:11.913Z,100200.03
2022-11-24T11:46:59.018Z,100185.69
2022-11-24T11:49:45.051Z,100205.94
2022-11-24T11:52:51.997Z,100206.63
2022-11-24T11:55:42.026Z,100191.50
2022-11-24T11:59:04.866Z,100195.53
2022-11-24T12:02:04.178Z,100174.78
2022-11-24T12:04:53.636Z,100174.78
2022-11-24T12:08:08.018Z,100177.09
2022-11-24T12:11:27.346Z,100173.19
2022-11-24T12:14:55.528Z,100174.41
2022-11-24T12:17:51.027Z,100156.09
2022-11-24T12:20:44.999Z,100144.75
2022-11-24T12:24:03.850Z,100162.50
2022-11-24T12:26:57.125Z,100142.03
2022-11-24T12:30:05.715Z,100153.63
2022-11-24T12:33:10.864Z,100136.22
2022-11-24T12:36:10.692Z,100120.94
2022-11-24T12:39:13.927Z,100151.75
2022-11-24T12:42:10.831Z,100140.97
2022-11-24T12:45:06.250Z,100137.41
2022-11-24T12:48:21.062Z,100149.13
2022-11-24T12:51:17.201Z,100134.59
2022-11-24T12:54:06.234Z,100107.94
2022-11-24T12:57:09.399Z,100137.94
2022-11-24T13:00:06.628Z,100115.22
2022-11-24T13:03:15.439Z,100084.13
2022-11-24T13:06:12.621Z,100112.28
2022-11-24T13:08:57.627Z,100111.59
2022-11-24T13:11:57.909Z,100104.41
2022-11-24T13:14:48.826Z,100097.22
2022-11-24T13:17:52.473Z,100091.97
2022-11-24T13:20:40.342Z,100089.81
2022-11-24T13:23:28.476Z,100082.31
2022-11-24T13:26:15.981Z,100079.25
2022-11-24T13:29:13.472Z,100065.31
2022-11-24T13:32:10.696Z,100071.50
2022-11-24T13:35:03.565Z,100069.78
2022-11-24T13:37:51.756Z,100072.00
2022-11-24T13:40:38.691Z,100078.28
2022-11-24T13:43:23.701Z,100063.50
2022-11-24T13:46:09.816Z,100046.03
2022-11-24T13:48:59.085Z,100054.94
2022-11-24T13:51:44.353Z,100050.25
2022-11-24T13:54:29.626Z,100036.94
2022-11-24T13:57:35.342Z,100035.28
2022-11-24T14:01:05.631Z,100039.84
2022-11-24T14:04:31.990Z,100028.63
2022-11-24T14:07:18.201Z,100033.56
2022-11-24T14:10:03.894Z,100036.03
2022-11-24T14:13:23.970Z,100032.97
2022-11-24T14:16:08.861Z,100027.13
2022-11-24T14:18:54.443Z,100028.13
2022-11-24T14:21:44.295Z,100019.53
2022-11-24T14:24:39.903Z,99998.34
2022-11-24T14:27:30.366Z,100025.78
2022-11-24T14:30:15.444Z,100026.75
2022-11-24T14:33:02.915Z,100019.81
2022-11-24T14:35:50.998Z,100003.94
2022-11-24T14:38:36.362Z,100002.28
2022-11-24T14:41:26.249Z,99982.63
2022-11-24T14:44:34.189Z,100002.16
2022-11-24T14:47:32.635Z,99984.69
2022-11-24T14:50:22.022Z,99994.53
2022-11-24T14:53:14.942Z,99980.69
2022-11-24T14:56:08.837Z,99991.09
2022-11-24T14:58:55.452Z,99975.59
2022-11-24T15:01:41.015Z,99959.59
2022-11-24T15:05:02.223Z,99970.63
2022-11-24T15:07:39.588Z,99918.63
2022-11-24T15:10:38.574Z,99952.25
2022-11-24T15:13:24.957Z,99933.88
2022-11-24T15:16:16.383Z,99932.25
2022-11-24T15:19:02.633Z,99934.88
2022-11-24T15:21:47.831Z,99926.28
2022-11-24T15:24:32.966Z,99923.94
2022-11-24T15:27:18.455Z,99919.63
2022-11-24T15:30:03.488Z,99917.28
2022-11-24T15:32:53.724Z,99927.06
2022-11-24T15:35:38.890Z,99920.03
2022-11-24T15:38:24.165Z,99923.88
2022-11-24T15:41:21.180Z,99920.81
2022-11-24T15:44:06.546Z,99928.84
2022-11-24T15:46:51.999Z,99932.16
2022-11-24T15:49:37.408Z,99909.47
2022-11-24T15:52:22.828Z,99934.09
2022-11-24T15:55:17.507Z,99928.00
2022-11-24T15:58:02.384Z,99928.84
2022-11-24T16:00:47.595Z,99920.28
2022-11-24T16:03:48.958Z,99910.75
2022-11-24T16:06:34.578Z,99922.19
2022-11-24T16:09:19.623Z,99912.50
2022-11-24T16:12:05.101Z,99917.47
2022-11-24T16:14:50.692Z,99894.19
2022-11-24T16:17:35.618Z,99908.63
2022-11-24T16:20:21.378Z,99894.53
2022-11-24T16:23:06.493Z,99865.34
2022-11-24T16:25:51.848Z,99886.22
2022-11-24T16:28:36.998Z,99895.19
2022-11-24T16:31:22.107Z,99879.69
2022-11-24T16:34:07.248Z,99870.41
2022-11-24T16:36:52.242Z,99856.38
2022-11-24T16:39:37.575Z,99859.09
2022-11-24T16:42:22.819Z,99876.53
2022-11-24T16:45:12.118Z,99890.91
2022-11-24T16:47:57.267Z,99919.75
2022-11-24T16:50:42.638Z,99893.53
2022-11-24T16:53:27.591Z,99896.25
2022-11-24T16:56:14.296Z,99898.78
2022-11-24T16:58:59.404Z,99891.66
2022-11-24T17:01:46.590Z,99907.72
2022-11-24T17:04:32.500Z,99903.56
2022-11-24T17:07:18.347Z,99903.56
2022-11-24T17:10:03.865Z,99896.53
2022-11-24T17:12:48.762Z,99911.69
2022-11-24T17:15:39.192Z,99898.22
2022-11-24T17:18:28.010Z,99917.25
2022-11-24T17:21:16.656Z,99910.19
2022-11-24T17:24:05.433Z,99925.59
2022-11-24T17:26:53.677Z,99950.41
2022-11-24T17:29:38.908Z,99909.13
2022-11-24T17:32:24.227Z,99945.56
2022-11-24T17:35:09.319Z,99953.78
2022-11-24T17:37:56.237Z,99976.81
2022-11-24T17:40:46.578Z,99965.28
2022-11-24T17:43:31.898Z,99950.72
2022-11-24T17:46:17.661Z,99979.03
2022-11-24T17:49:03.282Z,99981.19
2022-11-24T17:51:50.423Z,99987.75
2022-11-24T17:54:51.004Z,99988.72
2022-11-24T17:57:36.303Z,99989.81
2022-11-24T18:00:21.738Z,99988.41
2022-11-24T18:03:06.929Z,99992.81
2022-11-24T18:05:52.176Z,99992.81
2022-11-24T18:08:39.187Z,99998.22
2022-11-24T18:11:31.393Z,99997.19
2022-11-24T18:14:17.339Z,100004.31
2022-11-24T18:17:02.372Z,100009.56
2022-11-24T18:19:48.063Z,99991.00
2022-11-24T18:23:04.013Z,100012.19
2022-11-24T18:25:38.943Z,99997.06
2022-11-24T18:28:24.013Z,99996.63
2022-11-24T18:31:11.731Z,100018.16
2022-11-24T18:33:56.773Z,100021.94
2022-11-24T18:36:42.162Z,100020.28
2022-11-24T18:39:29.481Z,100000.28
2022-11-24T18:42:15.644Z,100016.47
2022-11-24T18:45:00.585Z,100025.28
2022-11-24T18:47:45.791Z,100027.91
2022-11-24T18:50:30.884Z,100012.31
2022-11-24T18:53:15.798Z,100022.09
2022-11-24T18:56:02.971Z,100022.69
2022-11-24T18:58:48.249Z,100035.78
2022-11-24T19:01:33.315Z,100033.50
2022-11-24T19:04:18.634Z,100035.28
2022-11-24T19:07:03.870Z,100020.91
2022-11-24T19:09:49.205Z,100039.31
2022-11-24T19:12:34.379Z,100043.72
2022-11-24T19:15:19.530Z,100047.44
2022-11-24T19:18:05.355Z,100039.94
2022-11-24T19:20:50.720Z,100035.66
2022-11-24T19:23:36.270Z,100043.84
2022-11-24T19:26:21.613Z,100039.59
2022-11-24T19:29:07.741Z,100049.34
2022-11-24T19:31:54.053Z,100040.91
2022-11-24T19:34:39.429Z,100063.59
2022-11-24T19:37:24.665Z,100058.84
2022-11-24T19:40:10.232Z,100046.72
2022-11-24T19:42:55.264Z,100062.41
2022-11-24T19:45:44.283Z,100061.00
2022-11-24T19:48:34.704Z,100054.31
2022-11-24T19:51:22.760Z,100043.13
2022-11-24T19:54:10.250Z,100048.75
2022-11-24T19:56:56.291Z,100056.22
2022-11-24T19:59:41.681Z,100059.09
2022-11-24T20:02:28.139Z,100069.78
2022-11-24T20:05:13.740Z,100067.66
2022-11-24T20:07:58.885Z,100076.09
2022-11-24T20:10:44.562Z,100067.00
2022-11-24T20:13:29.868Z,100062.34
2022-11-24T20:16:17.677Z,100079.34
2022-11-24T20:19:07.166Z,100087.78
2022-11-24T20:21:53.137Z,100099.28
2022-11-24T20:24:37.964Z,100100.59
2022-11-24T20:27:22.904Z,100095.81
2022-11-24T20:30:08.574Z,100076.03
2022-11-24T20:32:53.904Z,100084.59
2022-11-24T20:35:39.182Z,100101.97
2022-11-24T20:38:24.176Z,100100.56
2022-11-24T20:41:12.316Z,100085.66
2022-11-24T20:44:00.067Z,100101.13
2022-11-24T20:46:46.561Z,100100.28
2022-11-24T20:49:31.792Z,100093.81
2022-11-24T20:52:17.005Z,100113.59
2022-11-24T20:55:03.912Z,100109.50
2022-11-24T20:57:49.218Z,100119.00
2022-11-24T21:00:34.233Z,100119.97
2022-11-24T21:03:19.145Z,100104.22
2022-11-24T21:06:04.275Z,100130.66
2022-11-24T21:08:50.658Z,100123.97
2022-11-24T21:11:37.466Z,100124.91
2022-11-24T21:14:24.306Z,100121.78
2022-11-24T21:17:09.495Z,100133.63
2022-11-24T21:19:59.579Z,100102.75
2022-11-24T21:22:46.214Z,100138.47
2022-11-24T21:25:31.767Z,100125.50
2022-11-24T21:28:17.047Z,100124.81
2022-11-24T21:31:06.985Z,100129.50
2022-11-24T21:33:53.867Z,100123.94
2022-11-24T21:36:41.656Z,100105.28
2022-11-24T21:39:27.309Z,100111.94
2022-11-24T21:42:12.179Z,100120.72
2022-11-24T21:45:00.591Z,100142.66
2022-11-24T21:47:47.006Z,100117.38
2022-11-24T21:50:32.913Z,100140.78
2022-11-24T21:53:18.365Z,100142.06
2022-11-24T21:56:07.145Z,100149.69
2022-11-24T21:58:57.879Z,100147.53
2022-11-24T22:01:42.886Z,100151.41
2022-11-24T22:04:28.055Z,100144.91
2022-11-24T22:07:13.032Z,100146.78
2022-11-24T22:09:57.997Z,100156.28
2022-11-24T22:12:43.162Z,100160.47
2022-11-24T22:15:28.371Z,100152.72
2022-11-24T22:18:13.272Z,100145.53
2022-11-24T22:20:58.364Z,100139.38
2022-11-24T22:23:44.216Z,100146.56
2022-11-24T22:26:30.633Z,100137.53
2022-11-24T22:29:15.816Z,100143.97
2022-11-24T22:32:01.080Z,100144.47
2022-11-24T22:34:46.247Z,100147.50
2022-11-24T22:37:31.368Z,100152.72
2022-11-24T22:40:16.934Z,100132.25
2022-11-24T22:43:02.291Z,100150.81
2022-11-24T22:45:47.310Z,100163.06
2022-11-24T22:48:33.108Z,100167.53
2022-11-24T22:51:20.424Z,100175.72
2022-11-24T22:54:06.211Z,100171.13
2022-11-24T22:56:51.299Z,100173.00
2022-11-24T22:59:36.426Z,100147.28
2022-11-24T23:02:21.286Z,100180.13
2022-11-24T23:05:06.533Z,100183.88
2022-11-24T23:07:51.580Z,100180.53
2022-11-24T23:10:36.843Z,100168.19
2022-11-24T23:13:21.752Z,100193.72
2022-11-24T23:16:10.130Z,100195.59
2022-11-24T23:18:55.878Z,100190.66
2022-11-24T23:21:41.167Z,100187.22
2022-11-24T23:24:26.325Z,100201.03
2022-11-24T23:27:11.324Z,100195.16
2022-11-24T23:29:56.853Z,100201.84
2022-11-24T23:32:41.966Z,100203.19
2022-11-24T23:35:26.965Z,100206.44
2022-11-24T23:38:12.255Z,100185.00
2022-11-24T23:40:57.505Z,100216.66
2022-11-24T23:43:43.120Z,100209.34
2022-11-24T23:46:28.494Z,100220.13
2022-11-24T23:49:13.538Z,100201.41
2022-11-24T23:51:58.745Z,100190.66
2022-11-24T23:54:44.155Z,100216.78
2022-11-24T23:57:29.350Z,100223.34
